Temp: 6.8°C   Baro: 1019.7mb
  Wind: 2.9mph   Dir: W (281°)
  Rain: 7.6mm (0.0mm/hr)
  Solar: 0W/m2  Hum: 87%
 
Bath Spa Weather Station Historical Data
Daily Summary for July 13, 2019 Units:  English    Metric   Both
Daily Weekly Monthly Yearly Custom
  High: Low: Average:
Temperature: 51.7 °F 46.5 °F 49.2 °F
Dew Point: 46.9 °F 38.6 °F 45.1 °F
Humidity: 91% 70% 86%
Wind Speed: 18mph 1.5mph 9.3mph
Wind Gust: 30mph - -
Wind- - WNW
Pressure: 30.16 in 29.92 in -
Precipitation: 0.00 in    
Historical Graphs
 
 
Tabular Data for July 13, 2019
Time Temperature Dew Point Pressure Wind Wind Speed Wind Gust Humidity Rainfall Rate (Hourly) solar
00:04 48.7 °F 45.8 °F 30.16 in WNW 5.1 mph 10 mph 90% 0.00 in 0 W/m2
00:09 48.7 °F 45.9 °F 30.16 in WNW 5.8 mph 9 mph 90% 0.00 in 0 W/m2
00:14 48.7 °F 45.9 °F 30.16 in WNW 7.6 mph 12 mph 90% 0.00 in 0 W/m2
00:19 48.9 °F 46 °F 30.15 in WNW 5.3 mph 12 mph 90% 0.00 in 0 W/m2
00:24 48.9 °F 46 °F 30.15 in WNW 10.8 mph 17 mph 90% 0.00 in 0 W/m2
00:29 48.9 °F 46 °F 30.15 in WNW 8.3 mph 16 mph 90% 0.00 in 0 W/m2
00:34 48.9 °F 46 °F 30.15 in WNW 10.1 mph 18 mph 90% 0.00 in 0 W/m2
00:39 48.8 °F 46 °F 30.14 in WNW 8.9 mph 17 mph 90% 0.00 in 0 W/m2
00:44 48.7 °F 45.9 °F 30.14 in WNW 8.8 mph 16 mph 90% 0.00 in 0 W/m2
00:49 48.7 °F 45.9 °F 30.14 in WNW 10.6 mph 19 mph 90% 0.00 in 0 W/m2
00:54 48.7 °F 45.9 °F 30.15 in WNW 9.6 mph 16 mph 90% 0.00 in 0 W/m2
00:59 48.7 °F 46 °F 30.14 in WNW 9.1 mph 15 mph 90.4% 0.00 in 0 W/m2
01:04 48.7 °F 46.1 °F 30.14 in WNW 11.4 mph 18 mph 90.8% 0.00 in 0 W/m2
01:09 48.7 °F 45.9 °F 30.14 in WNW 10.9 mph 19 mph 90.1% 0.00 in 0 W/m2
01:14 48.7 °F 45.9 °F 30.13 in WNW 8.5 mph 19 mph 90% 0.00 in 0 W/m2
01:19 48.7 °F 45.9 °F 30.13 in WNW 7.8 mph 17 mph 90% 0.00 in 0 W/m2
01:24 48.7 °F 46.1 °F 30.13 in WNW 11.3 mph 17 mph 90.6% 0.00 in 0 W/m2
01:29 48.7 °F 46.2 °F 30.13 in WNW 8.7 mph 17 mph 91% 0.00 in 0 W/m2
01:34 48.8 °F 46.3 °F 30.13 in WNW 11.2 mph 21 mph 91% 0.00 in 0 W/m2
01:39 48.9 °F 46.4 °F 30.13 in WNW 10 mph 17 mph 91% 0.00 in 0 W/m2
01:44 48.9 °F 46.4 °F 30.13 in WNW 8.8 mph 14 mph 91% 0.00 in 0 W/m2
01:49 48.9 °F 46.4 °F 30.13 in WNW 11.3 mph 15 mph 91% 0.00 in 0 W/m2
01:54 48.9 °F 46.4 °F 30.13 in WNW 9.4 mph 14 mph 91% 0.00 in 0 W/m2
01:59 48.9 °F 46.4 °F 30.13 in WNW 9.2 mph 15 mph 91% 0.00 in 0 W/m2
02:04 49 °F 46.5 °F 30.13 in WNW 8.1 mph 15 mph 91% 0.00 in 0 W/m2
02:09 48.9 °F 46.4 °F 30.13 in WNW 7.7 mph 15 mph 91% 0.00 in 0 W/m2
02:14 49 °F 46.5 °F 30.13 in West 10.2 mph 16 mph 91% 0.00 in 0 W/m2
02:19 49.1 °F 46.6 °F 30.13 in West 8.8 mph 16 mph 91% 0.00 in 0 W/m2
02:24 49.1 °F 46.6 °F 30.13 in West 8.2 mph 13 mph 91% 0.00 in 0 W/m2
02:29 49 °F 46.5 °F 30.13 in West 6.8 mph 14 mph 91% 0.00 in 0 W/m2
02:34 48.9 °F 46.4 °F 30.12 in West 8.6 mph 14 mph 91% 0.00 in 0 W/m2
02:39 49 °F 46.5 °F 30.12 in West 6.8 mph 12 mph 91% 0.00 in 0 W/m2
02:44 49 °F 46.5 °F 30.12 in West 6.6 mph 12 mph 91% 0.00 in 0 W/m2
02:49 48.9 °F 46.4 °F 30.12 in West 8.4 mph 12 mph 91% 0.00 in 0 W/m2
02:54 48.9 °F 46.4 °F 30.12 in West 10.4 mph 16 mph 91% 0.00 in 0 W/m2
02:59 49 °F 46.5 °F 30.12 in West 7 mph 16 mph 91% 0.00 in 0 W/m2
03:04 49 °F 46.5 °F 30.12 in West 7.1 mph 15 mph 91% 0.00 in 0 W/m2
03:09 48.9 °F 46.4 °F 30.12 in West 8.7 mph 17 mph 91% 0.00 in 0 W/m2
03:14 48.9 °F 46.4 °F 30.12 in West 6.9 mph 17 mph 91% 0.00 in 0 W/m2
03:19 48.9 °F 46.4 °F 30.12 in West 7.9 mph 14 mph 91% 0.00 in 0 W/m2
03:24 49 °F 46.5 °F 30.12 in West 8.2 mph 14 mph 91% 0.00 in 0 W/m2
03:29 49 °F 46.5 °F 30.12 in West 10.2 mph 16 mph 91% 0.00 in 0 W/m2
03:34 49.1 °F 46.6 °F 30.12 in West 9 mph 15 mph 91% 0.00 in 0 W/m2
03:39 49.1 °F 46.6 °F 30.12 in West 9.2 mph 15 mph 91% 0.00 in 0 W/m2
03:44 49.1 °F 46.6 °F 30.11 in West 7.1 mph 15 mph 91% 0.00 in 0 W/m2
03:49 49.1 °F 46.6 °F 30.11 in West 5.4 mph 13 mph 91% 0.00 in 0 W/m2
03:54 49.1 °F 46.6 °F 30.11 in West 4.4 mph 9 mph 91% 0.00 in 0 W/m2
03:59 49.1 °F 46.6 °F 30.11 in WNW 6.2 mph 12 mph 91% 0.00 in 0 W/m2
04:04 49.2 °F 46.7 °F 30.11 in West 8 mph 14 mph 91% 0.00 in 0 W/m2
04:09 49.4 °F 46.8 °F 30.10 in West 8.6 mph 13 mph 90.9% 0.00 in 0 W/m2
04:14 49.5 °F 46.6 °F 30.10 in WNW 9.6 mph 16 mph 90% 0.00 in 0 W/m2
04:19 49.5 °F 46.6 °F 30.10 in West 6.9 mph 16 mph 90% 0.00 in 0 W/m2
04:24 49.5 °F 46.6 °F 30.10 in West 6.9 mph 15 mph 90% 0.00 in 0 W/m2
04:29 49.5 °F 46.6 °F 30.10 in WNW 7.5 mph 15 mph 90% 0.00 in 0 W/m2
04:34 49.3 °F 46.4 °F 30.10 in WNW 7.1 mph 13 mph 90% 0.00 in 0 W/m2
04:39 49.2 °F 46.3 °F 30.10 in West 7.2 mph 13 mph 90% 0.00 in 0 W/m2
04:44 49.1 °F 46.2 °F 30.10 in West 9.9 mph 16 mph 90% 0.00 in 0 W/m2
04:49 49.1 °F 46.2 °F 30.10 in WNW 12.6 mph 22 mph 90% 0.00 in 0 W/m2
04:54 49.1 °F 46.2 °F 30.10 in West 7.3 mph 14 mph 90% 0.00 in 0 W/m2
04:59 49.1 °F 46.2 °F 30.10 in West 8.6 mph 17 mph 90% 0.00 in 0 W/m2
05:04 49.1 °F 46.2 °F 30.10 in West 7.9 mph 17 mph 90% 0.00 in 0 W/m2
05:09 49.1 °F 46.2 °F 30.10 in West 8.8 mph 14 mph 90% 0.00 in 0 W/m2
05:14 49.1 °F 46.2 °F 30.10 in West 8 mph 15 mph 90% 0.00 in 0 W/m2
05:19 49.1 °F 46.2 °F 30.09 in WNW 10.4 mph 18 mph 90% 0.00 in 0 W/m2
05:24 49.1 °F 46.2 °F 30.09 in West 7.9 mph 16 mph 90% 0.00 in 0 W/m2
05:29 49.1 °F 46.2 °F 30.10 in West 7.1 mph 16 mph 90% 0.00 in 0 W/m2
05:34 49.1 °F 46.2 °F 30.09 in WNW 9 mph 16 mph 90% 0.00 in 0 W/m2
05:39 49.1 °F 46.1 °F 30.09 in WNW 7.9 mph 17 mph 89.4% 0.00 in 0 W/m2
05:44 49.1 °F 46 °F 30.09 in West 11.2 mph 18 mph 89% 0.00 in 0 W/m2
05:49 49.1 °F 46 °F 30.08 in West 10.8 mph 18 mph 89% 0.00 in 0 W/m2
05:54 49 °F 45.9 °F 30.08 in WNW 7.3 mph 15 mph 89% 0.00 in 0 W/m2
05:59 48.9 °F 45.9 °F 30.08 in WNW 13.4 mph 19 mph 89% 0.00 in 0 W/m2
06:04 48.8 °F 45.8 °F 30.07 in WNW 8.6 mph 18 mph 89% 0.00 in 0 W/m2
06:09 48.8 °F 45.8 °F 30.07 in WNW 15 mph 26 mph 89% 0.00 in 0 W/m2
06:14 48.8 °F 45.8 °F 30.07 in WNW 10.2 mph 21 mph 89% 0.00 in 0 W/m2
06:19 48.7 °F 45.7 °F 30.07 in WNW 11.6 mph 21 mph 89% 0.00 in 0 W/m2
06:24 48.7 °F 45.7 °F 30.07 in WNW 11.1 mph 21 mph 89% 0.00 in 0 W/m2
06:29 48.7 °F 45.5 °F 30.07 in WNW 8.1 mph 21 mph 88.5% 0.00 in 0 W/m2
06:34 48.7 °F 45.5 °F 30.08 in WNW 11.4 mph 22 mph 88.6% 0.00 in 0 W/m2
06:39 48.7 °F 45.7 °F 30.08 in WNW 13.7 mph 23 mph 89% 0.00 in 0 W/m2
06:44 48.7 °F 45.5 °F 30.07 in WNW 9.5 mph 20 mph 88.3% 0.00 in 0 W/m2
06:49 48.7 °F 45.7 °F 30.07 in WNW 9.4 mph 20 mph 89% 0.00 in 0 W/m2
06:54 48.7 °F 45.5 °F 30.07 in WNW 11.1 mph 20 mph 88.5% 0.00 in 0 W/m2
06:59 48.7 °F 45.4 °F 30.07 in WNW 9.6 mph 20 mph 88.2% 0.00 in 0 W/m2
07:04 48.7 °F 45.3 °F 30.07 in WNW 8 mph 17 mph 88% 0.00 in 0 W/m2
07:09 48.7 °F 45.3 °F 30.07 in WNW 9.9 mph 18 mph 88% 0.00 in 0 W/m2
07:14 48.7 °F 45.2 °F 30.07 in WNW 9.2 mph 18 mph 88% 0.00 in 0 W/m2
07:19 48.7 °F 45.2 °F 30.06 in WNW 8.5 mph 17 mph 88% 0.00 in 0 W/m2
07:24 48.6 °F 45.2 °F 30.06 in WNW 9.4 mph 16 mph 88% 0.00 in 0 W/m2
07:29 48.7 °F 45.3 °F 30.06 in WNW 10.6 mph 17 mph 88% 0.00 in 0 W/m2
07:34 48.7 °F 45.3 °F 30.06 in NW 7.7 mph 17 mph 88% 0.00 in 0 W/m2
07:39 48.7 °F 45.3 °F 30.06 in WNW 9.7 mph 19 mph 88% 0.00 in 0 W/m2
07:44 48.7 °F 45.3 °F 30.06 in WNW 9 mph 19 mph 88% 0.00 in 0 W/m2
07:49 48.7 °F 45.3 °F 30.06 in WNW 8.4 mph 16 mph 88% 0.00 in 0 W/m2
07:54 48.7 °F 45.3 °F 30.06 in WNW 9.9 mph 16 mph 88% 0.00 in 0 W/m2
07:59 48.7 °F 45.3 °F 30.06 in WNW 8.5 mph 16 mph 88% 0.00 in 0 W/m2
08:04 48.7 °F 45.3 °F 30.07 in WNW 9.1 mph 16 mph 88% 0.00 in 0 W/m2
08:09 48.7 °F 45.3 °F 30.07 in NW 7.2 mph 16 mph 88% 0.00 in 0 W/m2
08:14 48.7 °F 45.3 °F 30.07 in WNW 6.9 mph 14 mph 88% 0.00 in 0 W/m2
08:19 48.7 °F 45.2 °F 30.06 in WNW 9.5 mph 16 mph 88% 0.00 in 0 W/m2
08:24 48.7 °F 45.2 °F 30.06 in WNW 11 mph 17 mph 88% 0.00 in 0 W/m2
08:29 48.7 °F 45.1 °F 30.07 in WNW 10.2 mph 17 mph 87.3% 0.00 in 0 W/m2
08:34 48.7 °F 45 °F 30.06 in WNW 8.5 mph 17 mph 87% 0.00 in 0 W/m2
08:39 48.7 °F 45.3 °F 30.06 in WNW 10.5 mph 20 mph 88% 0.00 in 0 W/m2
08:44 48.7 °F 45.3 °F 30.06 in WNW 11.1 mph 22 mph 88% 0.00 in 5 W/m2
08:49 48.7 °F 45.3 °F 30.06 in WNW 10.2 mph 22 mph 88% 0.00 in 7 W/m2
08:54 48.7 °F 45.3 °F 30.05 in WNW 10.2 mph 18 mph 88% 0.00 in 11 W/m2
08:59 48.7 °F 45.2 °F 30.05 in WNW 12.6 mph 19 mph 88% 0.00 in 12 W/m2
09:04 48.6 °F 45.2 °F 30.05 in WNW 8.9 mph 18 mph 88% 0.00 in 21 W/m2
09:09 48.7 °F 45.2 °F 30.04 in WNW 11.9 mph 20 mph 88% 0.00 in 33 W/m2
09:14 48.7 °F 45.3 °F 30.05 in WNW 16.4 mph 26 mph 88% 0.00 in 42 W/m2
09:19 48.7 °F 45.1 °F 30.04 in WNW 12.6 mph 24 mph 87.2% 0.00 in 51 W/m2
09:24 48.8 °F 45 °F 30.04 in WNW 12.4 mph 24 mph 87% 0.00 in 67 W/m2
09:29 48.8 °F 45.1 °F 30.04 in WNW 11.8 mph 21 mph 87% 0.00 in 37 W/m2
09:34 48.9 °F 45.1 °F 30.04 in WNW 14.2 mph 22 mph 87% 0.00 in 33 W/m2
09:39 48.9 °F 45.1 °F 30.04 in WNW 12 mph 22 mph 87% 0.00 in 33 W/m2
09:44 48.9 °F 45.1 °F 30.04 in WNW 11.9 mph 22 mph 87% 0.00 in 47 W/m2
09:49 48.9 °F 45.1 °F 30.04 in WNW 12.1 mph 22 mph 87% 0.00 in 58 W/m2
09:54 49 °F 45.2 °F 30.04 in WNW 13.6 mph 23 mph 87% 0.00 in 42 W/m2
09:59 49.1 °F 45.3 °F 30.04 in WNW 12.1 mph 23 mph 87% 0.00 in 44 W/m2
10:04 49.1 °F 45.3 °F 30.04 in WNW 11.1 mph 16 mph 87% 0.00 in 35 W/m2
10:09 49.1 °F 45.3 °F 30.04 in WNW 14 mph 20 mph 87% 0.00 in 49 W/m2
10:14 49.2 °F 45.4 °F 30.05 in WNW 15.4 mph 27 mph 87% 0.00 in 42 W/m2
10:19 49.3 °F 45.5 °F 30.05 in WNW 10.4 mph 21 mph 87% 0.00 in 53 W/m2
10:24 49.4 °F 45.6 °F 30.05 in WNW 10 mph 21 mph 87% 0.00 in 47 W/m2
10:29 49.5 °F 45.7 °F 30.04 in WNW 11.5 mph 22 mph 87% 0.00 in 47 W/m2
10:34 49.5 °F 45.7 °F 30.04 in WNW 10.8 mph 18 mph 87% 0.00 in 39 W/m2
10:39 49.5 °F 45.7 °F 30.04 in WNW 12.8 mph 22 mph 87% 0.00 in 35 W/m2
10:44 49.5 °F 45.7 °F 30.03 in WNW 12.1 mph 22 mph 87% 0.00 in 33 W/m2
10:49 49.5 °F 45.7 °F 30.03 in WNW 10.1 mph 21 mph 87% 0.00 in 30 W/m2
10:54 49.5 °F 45.7 °F 30.03 in WNW 12.6 mph 24 mph 87% 0.00 in 30 W/m2
10:59 49.4 °F 45.6 °F 30.03 in WNW 9.9 mph 20 mph 87% 0.00 in 28 W/m2
11:04 49.4 °F 45.6 °F 30.03 in WNW 11.3 mph 17 mph 87% 0.00 in 30 W/m2
11:09 49.4 °F 45.6 °F 30.03 in WNW 10.8 mph 19 mph 87% 0.00 in 25 W/m2
11:14 49.4 °F 45.6 °F 30.03 in WNW 12.9 mph 21 mph 87% 0.00 in 25 W/m2
11:19 49.4 °F 45.8 °F 30.03 in WNW 14.5 mph 28 mph 87.5% 0.00 in 35 W/m2
11:24 49.5 °F 46 °F 30.03 in WNW 12.6 mph 25 mph 88% 0.00 in 44 W/m2
11:29 49.5 °F 46 °F 30.02 in WNW 9.5 mph 20 mph 88% 0.00 in 56 W/m2
11:34 49.5 °F 46 °F 30.01 in WNW 18 mph 28 mph 88% 0.00 in 49 W/m2
11:39 49.5 °F 46 °F 30.01 in WNW 9.7 mph 28 mph 88% 0.00 in 46 W/m2
11:44 49.5 °F 46 °F 30.01 in WNW 11.2 mph 22 mph 88% 0.00 in 42 W/m2
11:49 49.5 °F 46 °F 30.01 in WNW 13.6 mph 24 mph 88% 0.00 in 35 W/m2
11:54 49.5 °F 46 °F 30.01 in WNW 9.6 mph 22 mph 88% 0.00 in 33 W/m2
11:59 49.5 °F 46 °F 30.01 in WNW 11.4 mph 21 mph 88% 0.00 in 30 W/m2
12:04 49.5 °F 46 °F 30.00 in WNW 10.1 mph 21 mph 88% 0.00 in 32 W/m2
12:09 49.5 °F 46 °F 30.00 in WNW 10.3 mph 18 mph 88% 0.00 in 35 W/m2
12:14 49.5 °F 46 °F 29.99 in WNW 9.4 mph 19 mph 87.8% 0.00 in 37 W/m2
12:19 49.6 °F 45.9 °F 29.99 in WNW 10.5 mph 20 mph 87.1% 0.00 in 40 W/m2
12:24 49.6 °F 45.9 °F 29.99 in WNW 11.1 mph 21 mph 87% 0.00 in 39 W/m2
12:29 49.6 °F 45.9 °F 29.99 in WNW 11.1 mph 22 mph 87% 0.00 in 40 W/m2
12:34 49.6 °F 45.9 °F 29.99 in WNW 11.8 mph 23 mph 87% 0.00 in 42 W/m2
12:39 49.6 °F 45.9 °F 29.99 in WNW 11.3 mph 22 mph 87% 0.00 in 42 W/m2
12:44 49.6 °F 46 °F 29.98 in WNW 14.4 mph 28 mph 87.3% 0.00 in 28 W/m2
12:49 49.5 °F 46 °F 29.98 in WNW 12.7 mph 24 mph 88% 0.00 in 28 W/m2
12:54 49.5 °F 46 °F 29.98 in WNW 9.7 mph 21 mph 88% 0.00 in 26 W/m2
12:59 49.4 °F 46 °F 29.98 in WNW 13.6 mph 23 mph 88% 0.00 in 37 W/m2
13:04 49.2 °F 46 °F 29.97 in WNW 11.2 mph 22 mph 88.5% 0.00 in 44 W/m2
13:09 49.1 °F 46 °F 29.97 in WNW 12.5 mph 22 mph 89% 0.00 in 56 W/m2
13:14 49.1 °F 46 °F 29.97 in WNW 14.5 mph 28 mph 89% 0.00 in 67 W/m2
13:19 49.1 °F 46.1 °F 29.97 in WNW 13.1 mph 23 mph 89.3% 0.00 in 56 W/m2
13:24 49.1 °F 46.2 °F 29.97 in WNW 9.5 mph 20 mph 89.8% 0.00 in 67 W/m2
13:29 49.1 °F 46.2 °F 29.97 in WNW 12.3 mph 23 mph 90% 0.00 in 56 W/m2
13:34 49.2 °F 46.3 °F 29.97 in WNW 9.9 mph 22 mph 90% 0.00 in 54 W/m2
13:39 49.3 °F 46.4 °F 29.97 in WNW 12 mph 20 mph 90% 0.00 in 39 W/m2
13:44 49.4 °F 46.5 °F 29.97 in WNW 10.8 mph 20 mph 90% 0.00 in 30 W/m2
13:49 49.5 °F 46.6 °F 29.97 in WNW 9.9 mph 17 mph 90% 0.00 in 32 W/m2
13:54 49.5 °F 46.6 °F 29.96 in WNW 14.3 mph 24 mph 90% 0.00 in 28 W/m2
13:59 49.5 °F 46.6 °F 29.96 in WNW 10.7 mph 20 mph 90% 0.00 in 26 W/m2
14:04 49.3 °F 46.4 °F 29.96 in WNW 9.8 mph 22 mph 90% 0.00 in 26 W/m2
14:09 49.2 °F 46.3 °F 29.96 in WNW 12.1 mph 26 mph 90% 0.00 in 21 W/m2
14:14 49.1 °F 46.2 °F 29.95 in WNW 15 mph 26 mph 90% 0.00 in 21 W/m2
14:19 49.1 °F 46.3 °F 29.95 in WNW 12.8 mph 24 mph 90.3% 0.00 in 23 W/m2
14:24 49.1 °F 46.6 °F 29.95 in WNW 13 mph 23 mph 91% 0.00 in 30 W/m2
14:29 48.9 °F 46.4 °F 29.95 in WNW 13.3 mph 24 mph 91% 0.00 in 25 W/m2
14:34 48.9 °F 46.4 °F 29.95 in WNW 11.6 mph 24 mph 91% 0.00 in 21 W/m2
14:39 48.9 °F 46.4 °F 29.95 in WNW 11.1 mph 19 mph 91% 0.00 in 23 W/m2
14:44 48.9 °F 46.4 °F 29.95 in WNW 11.9 mph 20 mph 91% 0.00 in 23 W/m2
14:49 48.9 °F 46.4 °F 29.95 in WNW 12.5 mph 20 mph 91% 0.00 in 23 W/m2
14:54 48.9 °F 46.4 °F 29.94 in WNW 11.7 mph 21 mph 91% 0.00 in 23 W/m2
14:59 48.9 °F 46.4 °F 29.94 in WNW 12.2 mph 22 mph 91% 0.00 in 23 W/m2
15:04 48.9 °F 46.4 °F 29.94 in WNW 10.1 mph 20 mph 91% 0.00 in 19 W/m2
15:09 48.9 °F 46.4 °F 29.94 in WNW 9 mph 19 mph 91% 0.00 in 16 W/m2
15:14 48.9 °F 46.4 °F 29.94 in WNW 10.5 mph 20 mph 91% 0.00 in 14 W/m2
15:19 48.9 °F 46.4 °F 29.93 in WNW 9 mph 17 mph 91% 0.00 in 11 W/m2
15:24 48.9 °F 46.4 °F 29.93 in WNW 10.3 mph 18 mph 91% 0.00 in 9 W/m2
15:29 48.9 °F 46.4 °F 29.93 in WNW 9 mph 19 mph 91% 0.00 in 7 W/m2
15:34 49 °F 46.5 °F 29.93 in WNW 10.7 mph 21 mph 91% 0.00 in 9 W/m2
15:39 49.1 °F 46.6 °F 29.93 in WNW 10.2 mph 16 mph 91% 0.00 in 9 W/m2
15:44 49.1 °F 46.6 °F 29.93 in WNW 9.7 mph 16 mph 91% 0.00 in 7 W/m2
15:49 49.1 °F 46.6 °F 29.93 in WNW 9.6 mph 18 mph 91% 0.00 in 5 W/m2
15:54 49.1 °F 46.6 °F 29.93 in WNW 8.9 mph 17 mph 91% 0.00 in 5 W/m2
15:59 49.1 °F 46.6 °F 29.93 in NW 9.9 mph 18 mph 91% 0.00 in 0 W/m2
16:04 49.3 °F 46.8 °F 29.93 in WNW 9.9 mph 16 mph 91% 0.00 in 5 W/m2
16:09 49.4 °F 46.9 °F 29.94 in WNW 9.3 mph 18 mph 91% 0.00 in 5 W/m2
16:14 49.5 °F 46.7 °F 29.94 in WNW 8.4 mph 16 mph 90.2% 0.00 in 5 W/m2
16:19 49.5 °F 46.8 °F 29.93 in WNW 10 mph 18 mph 90.6% 0.00 in 5 W/m2
16:24 49.5 °F 46.7 °F 29.93 in WNW 8.8 mph 18 mph 90.3% 0.00 in 0 W/m2
16:29 49.5 °F 46.6 °F 29.93 in WNW 12 mph 22 mph 90% 0.00 in 0 W/m2
16:34 49.5 °F 46.6 °F 29.93 in WNW 9.3 mph 22 mph 90% 0.00 in 0 W/m2
16:39 49.4 °F 46.5 °F 29.93 in WNW 8.8 mph 18 mph 90% 0.00 in 0 W/m2
16:44 49.2 °F 46.3 °F 29.93 in WNW 8.3 mph 13 mph 90% 0.00 in 0 W/m2
16:49 49.2 °F 46.3 °F 29.93 in WNW 10 mph 18 mph 90% 0.00 in 0 W/m2
16:54 49.1 °F 46.2 °F 29.93 in WNW 7.3 mph 14 mph 90% 0.00 in 0 W/m2
16:59 49.1 °F 46.2 °F 29.93 in WNW 6.6 mph 11 mph 90% 0.00 in 0 W/m2
17:04 49.1 °F 46.2 °F 29.93 in WNW 7.1 mph 13 mph 90% 0.00 in 0 W/m2
17:09 48.9 °F 46 °F 29.93 in WNW 5.6 mph 10 mph 90% 0.00 in 0 W/m2
17:14 48.9 °F 46 °F 29.92 in WNW 8.3 mph 12 mph 90% 0.00 in 0 W/m2
17:19 48.9 °F 46 °F 29.93 in WNW 6.3 mph 13 mph 90% 0.00 in 0 W/m2
17:24 49 °F 46.1 °F 29.93 in WNW 7.4 mph 13 mph 90% 0.00 in 0 W/m2
17:29 49.1 °F 46.2 °F 29.93 in WNW 5.8 mph 11 mph 89.8% 0.00 in 0 W/m2
17:34 49.1 °F 46 °F 29.93 in WNW 5.9 mph 11 mph 89% 0.00 in 0 W/m2
17:39 49.1 °F 46 °F 29.93 in WNW 5.1 mph 11 mph 89% 0.00 in 0 W/m2
17:44 49.2 °F 46.1 °F 29.93 in WNW 3.6 mph 11 mph 89% 0.00 in 0 W/m2
17:49 49.4 °F 45.9 °F 29.93 in NW 2.8 mph 11 mph 88% 0.00 in 0 W/m2
17:54 49.5 °F 46 °F 29.93 in WNW 3.2 mph 8 mph 88% 0.00 in 0 W/m2
17:59 49.6 °F 46 °F 29.93 in NW 3 mph 7 mph 87.5% 0.00 in 0 W/m2
18:04 49.8 °F 46 °F 29.93 in NW 8 mph 12 mph 87% 0.00 in 0 W/m2
18:09 50 °F 46.1 °F 29.93 in NW 7.2 mph 12 mph 86.5% 0.00 in 0 W/m2
18:14 50 °F 46 °F 29.93 in NW 5.5 mph 11 mph 86% 0.00 in 0 W/m2
18:19 50.1 °F 46.1 °F 29.93 in NW 5.7 mph 11 mph 86% 0.00 in 0 W/m2
18:24 50.2 °F 46.1 °F 29.93 in NW 4.1 mph 11 mph 85.5% 0.00 in 0 W/m2
18:29 50.3 °F 45.9 °F 29.93 in WNW 2.9 mph 7 mph 85% 0.00 in 0 W/m2
18:34 50.3 °F 46 °F 29.93 in WNW 3.9 mph 9 mph 85% 0.00 in 0 W/m2
18:39 50.4 °F 46 °F 29.93 in WNW 2.4 mph 5 mph 85% 0.00 in 0 W/m2
18:44 50.4 °F 45.7 °F 29.94 in NNW 1.5 mph 6 mph 84.1% 0.00 in 0 W/m2
18:49 50.4 °F 45.8 °F 29.94 in NW 3.1 mph 7 mph 84% 0.00 in 0 W/m2
18:54 50.5 °F 45.6 °F 29.94 in NW 3.9 mph 10 mph 83.2% 0.00 in 0 W/m2
18:59 50.7 °F 45.7 °F 29.94 in NW 3.7 mph 10 mph 82.9% 0.00 in 0 W/m2
19:04 50.9 °F 45.7 °F 29.94 in WNW 3.5 mph 8 mph 82% 0.00 in 0 W/m2
19:09 50.9 °F 45.7 °F 29.94 in WNW 3.5 mph 7 mph 82% 0.00 in 0 W/m2
19:14 50.7 °F 45.5 °F 29.94 in West 4.4 mph 7 mph 82% 0.00 in 0 W/m2
19:19 50.5 °F 45.3 °F 29.95 in WNW 5.7 mph 9 mph 82% 0.00 in 0 W/m2
19:24 50.4 °F 45.1 °F 29.95 in West 5.3 mph 11 mph 82% 0.00 in 0 W/m2
19:29 50.2 °F 45.1 °F 29.95 in WNW 5.4 mph 11 mph 83% 0.00 in 0 W/m2
19:34 50.2 °F 45.1 °F 29.95 in WNW 7.2 mph 14 mph 83% 0.00 in 0 W/m2
19:39 50.5 °F 45.3 °F 29.95 in WNW 8 mph 16 mph 82.2% 0.00 in 0 W/m2
19:44 50.6 °F 45.3 °F 29.96 in WNW 7.8 mph 14 mph 81.8% 0.00 in 0 W/m2
19:49 50.7 °F 45.1 °F 29.96 in NW 6.4 mph 11 mph 81% 0.00 in 0 W/m2
19:54 51 °F 44.6 °F 29.96 in WNW 13 mph 23 mph 78.7% 0.00 in 0 W/m2
19:59 51.6 °F 43.4 °F 29.96 in NW 15.2 mph 30 mph 73.6% 0.00 in 0 W/m2
20:04 51.7 °F 42.7 °F 29.96 in NW 12.4 mph 21 mph 71.5% 0.00 in 0 W/m2
20:09 51.5 °F 42.4 °F 29.96 in NW 11.5 mph 22 mph 71% 0.00 in 0 W/m2
20:14 51.4 °F 42 °F 29.96 in NW 13.4 mph 25 mph 70.2% 0.00 in 0 W/m2
20:19 51.3 °F 42.2 °F 29.96 in NW 9.7 mph 21 mph 70.9% 0.00 in 0 W/m2
20:24 50.9 °F 41.9 °F 29.96 in NW 10.1 mph 18 mph 71% 0.00 in 0 W/m2
20:29 50.7 °F 41.7 °F 29.97 in NW 10.1 mph 19 mph 71% 0.00 in 0 W/m2
20:34 50.7 °F 41.7 °F 29.97 in NW 13.8 mph 22 mph 71% 0.00 in 0 W/m2
20:39 50.7 °F 41.4 °F 29.97 in NW 11.1 mph 21 mph 70% 0.00 in 0 W/m2
20:44 50.5 °F 41.2 °F 29.97 in NW 11.9 mph 22 mph 70% 0.00 in 0 W/m2
20:49 50.5 °F 41.2 °F 29.98 in NW 12.8 mph 21 mph 70% 0.00 in 0 W/m2
20:54 50.5 °F 41.2 °F 29.98 in NW 10.6 mph 17 mph 70.2% 0.00 in 0 W/m2
20:59 50.4 °F 41.4 °F 29.98 in NW 14.8 mph 22 mph 71% 0.00 in 0 W/m2
21:04 50.3 °F 41.3 °F 29.98 in NW 14 mph 24 mph 71% 0.00 in 0 W/m2
21:09 50.1 °F 41.1 °F 29.98 in NW 11.5 mph 19 mph 71% 0.00 in 0 W/m2
21:14 50 °F 41.3 °F 29.98 in NNW 11.7 mph 19 mph 71.7% 0.00 in 0 W/m2
21:19 49.9 °F 41.3 °F 29.98 in NW 7.4 mph 18 mph 72% 0.00 in 0 W/m2
21:24 49.8 °F 41.2 °F 29.99 in NW 10 mph 16 mph 72% 0.00 in 0 W/m2
21:29 49.6 °F 41 °F 29.99 in NW 12.2 mph 18 mph 72% 0.00 in 0 W/m2
21:34 49.5 °F 40.9 °F 30.00 in NW 8.4 mph 18 mph 72% 0.00 in 0 W/m2
21:39 49.4 °F 40.8 °F 30.00 in NW 7.1 mph 15 mph 72.2% 0.00 in 0 W/m2
21:44 49.1 °F 40.8 °F 30.01 in NW 7.4 mph 15 mph 72.8% 0.00 in 0 W/m2
21:49 49.1 °F 40.8 °F 30.01 in NW 7.2 mph 15 mph 73% 0.00 in 0 W/m2
21:54 49.1 °F 40.7 °F 30.00 in NW 8.8 mph 16 mph 72.6% 0.00 in 0 W/m2
21:59 49.1 °F 40.5 °F 30.01 in NW 8.4 mph 17 mph 72% 0.00 in 0 W/m2
22:04 49.1 °F 40.5 °F 30.01 in NW 6.1 mph 14 mph 72% 0.00 in 0 W/m2
22:09 49.1 °F 40.5 °F 30.01 in NW 6.4 mph 14 mph 72% 0.00 in 0 W/m2
22:14 49.1 °F 40.5 °F 30.01 in NW 9.5 mph 15 mph 72.2% 0.00 in 0 W/m2
22:19 49.1 °F 40.8 °F 30.01 in NW 6.6 mph 15 mph 73% 0.00 in 0 W/m2
22:24 48.9 °F 40.6 °F 30.01 in NW 8 mph 17 mph 73% 0.00 in 0 W/m2
22:29 48.7 °F 40.5 °F 30.01 in WNW 8 mph 14 mph 73% 0.00 in 0 W/m2
22:34 48.6 °F 40.4 °F 30.01 in WNW 7.7 mph 16 mph 73% 0.00 in 0 W/m2
22:39 48.6 °F 40.3 °F 30.02 in WNW 8.6 mph 18 mph 73% 0.00 in 0 W/m2
22:44 48.4 °F 40.3 °F 30.02 in WNW 4.6 mph 11 mph 73.7% 0.00 in 0 W/m2
22:49 48.2 °F 40.4 °F 30.02 in WNW 6.4 mph 12 mph 74.4% 0.00 in 0 W/m2
22:54 48.1 °F 40.6 °F 30.02 in WNW 5.5 mph 12 mph 75% 0.00 in 0 W/m2
22:59 48 °F 40.5 °F 30.03 in NW 7.6 mph 15 mph 75% 0.00 in 0 W/m2
23:04 48 °F 40.4 °F 30.03 in WNW 5.9 mph 13 mph 74.8% 0.00 in 0 W/m2
23:09 47.8 °F 40 °F 30.03 in WNW 6.7 mph 16 mph 74.1% 0.00 in 0 W/m2
23:14 47.8 °F 39.8 °F 30.03 in WNW 6.7 mph 12 mph 74% 0.00 in 0 W/m2
23:19 47.7 °F 39.7 °F 30.03 in WNW 5.5 mph 10 mph 74% 0.00 in 0 W/m2
23:24 47.4 °F 39.5 °F 30.03 in WNW 5 mph 11 mph 74% 0.00 in 0 W/m2
23:29 47.2 °F 39.3 °F 30.03 in WNW 2.9 mph 8 mph 74% 0.00 in 0 W/m2
23:34 47.1 °F 39.2 °F 30.03 in WNW 6.4 mph 14 mph 74% 0.00 in 0 W/m2
23:39 46.9 °F 39 °F 30.04 in West 6.5 mph 14 mph 74% 0.00 in 0 W/m2
23:44 46.8 °F 38.8 °F 30.04 in West 5.7 mph 10 mph 74% 0.00 in 0 W/m2
23:49 46.5 °F 38.6 °F 30.04 in WNW 7.2 mph 12 mph 74% 0.00 in 0 W/m2
23:54 46.6 °F 38.7 °F 30.04 in WNW 8.1 mph 13 mph 74% 0.00 in 0 W/m2
23:59 46.8 °F 38.6 °F 30.04 in WNW 4.8 mph 13 mph 73.1% 0.00 in 0 W/m2
Bath Spa Weather
Compliments of Weather Underground - 2 mb